Accueil
METAR-TAF:

METAR-TAF

Aéroports :

Raton Municipal Airport (Crews Field)

Raton, Nouveau-Mexique, États-Unis

latitude: 36-44-31N, longitude: 104-39-28W, altitude: 1935 m

Observation

Le bulletin a été fait il y a 55 minutes, à 23:53 UTC
Vent 18 kt de nord/nord-ouest avec des rafales jusqu'à 24 kt
Température 17°C
Humidité 63%
Pression 1023 hPa
Visibilité: 16.1 km
Ciel couvert à une hauteur de 9000 ft
pluie faible

METAR: KRTN 022353Z AUTO 33018G24KT 10SM -RA OVC090 17/10 A3022 RMK AO2 PK WND 33032/2324 RAB08 SLP176 P0000 60000 T01670100 10317 20167 53013

Heure: 18:48 (00:48 UTC)


TAF: absent

Observations et prévisions météorologiques de plus de 4000 aéroports (messages METAR et TAF).

Les stations disponibles sont représentées par des disques jaunes et rouges sur la carte.

Passer la souris dessus pour voir le nom de la station.

Cliquer dessus pour voir les observations et prévisions météorologiques.

Pour changer de carte: cliquez sur les boutons verts avec une croix noire pour zoomer, sur le bouton vert avec un tiret pour effectuer un zoom arrière, ou sur les flèches vertes pour les cartes adjacentes.


METAR-TAF: